createdAt,value
2023-03-16T00:00:56.854Z,3.22
2023-03-16T00:03:24.679Z,2.42
2023-03-16T00:05:54.295Z,3.17
2023-03-16T00:08:24.355Z,3.25
2023-03-16T00:10:54.267Z,2.88
2023-03-16T00:13:24.737Z,3.00
2023-03-16T00:15:53.446Z,2.90
2023-03-16T00:18:22.540Z,3.00
2023-03-16T00:20:53.439Z,3.45
2023-03-16T00:23:27.602Z,3.28
2023-03-16T00:26:02.051Z,2.72
2023-03-16T00:28:34.607Z,3.22
2023-03-16T00:31:02.934Z,2.70
2023-03-16T00:33:35.325Z,2.78
2023-03-16T00:36:09.377Z,3.13
2023-03-16T00:38:39.504Z,3.08
2023-03-16T00:41:09.639Z,3.08
2023-03-16T00:43:41.699Z,3.00
2023-03-16T00:46:11.520Z,3.10
2023-03-16T00:48:42.557Z,3.20
2023-03-16T00:51:13.673Z,3.20
2023-03-16T00:53:43.247Z,2.97
2023-03-16T00:56:13.781Z,2.65
2023-03-16T00:58:43.049Z,2.85
2023-03-16T01:01:14.184Z,2.67
2023-03-16T01:03:42.472Z,3.22
2023-03-16T01:06:12.458Z,3.30
2023-03-16T01:08:41.851Z,3.08
2023-03-16T01:11:12.730Z,3.03
2023-03-16T01:13:41.393Z,3.28
2023-03-16T01:16:11.189Z,3.00
2023-03-16T01:18:41.466Z,2.70
2023-03-16T01:21:13.728Z,2.50
2023-03-16T01:23:42.839Z,2.45
2023-03-16T01:26:12.270Z,2.63
2023-03-16T01:28:40.267Z,2.70
2023-03-16T01:31:10.151Z,2.65
2023-03-16T01:33:40.340Z,2.55
2023-03-16T01:36:13.559Z,2.70
2023-03-16T01:38:51.124Z,2.38
2023-03-16T01:41:20.413Z,2.20
2023-03-16T01:43:48.157Z,2.88
2023-03-16T01:46:20.067Z,2.63
2023-03-16T01:49:12.299Z,2.90
2023-03-16T01:51:45.324Z,2.67
2023-03-16T01:54:21.841Z,3.03
2023-03-16T01:56:58.371Z,2.60
2023-03-16T01:59:32.326Z,2.60
2023-03-16T02:02:03.035Z,2.40
2023-03-16T02:04:43.591Z,2.40
2023-03-16T02:07:17.127Z,2.63
2023-03-16T02:09:49.568Z,2.30
2023-03-16T02:12:20.332Z,3.05
2023-03-16T02:14:53.193Z,2.75
2023-03-16T02:17:24.880Z,2.50
2023-03-16T02:20:08.811Z,2.80
2023-03-16T02:22:42.359Z,2.30
2023-03-16T02:25:11.222Z,2.35
2023-03-16T02:27:47.321Z,2.65
2023-03-16T02:30:18.498Z,2.22
2023-03-16T02:33:02.428Z,2.78
2023-03-16T02:35:30.245Z,2.17
2023-03-16T02:37:58.139Z,2.08
2023-03-16T02:40:32.917Z,2.20
2023-03-16T02:43:08.073Z,2.30
2023-03-16T02:45:46.186Z,2.42
2023-03-16T02:48:24.435Z,2.40
2023-03-16T02:50:54.559Z,1.85
2023-03-16T02:53:22.588Z,2.00
2023-03-16T02:55:50.825Z,1.90
2023-03-16T02:58:19.265Z,2.15
2023-03-16T03:00:49.249Z,2.10
2023-03-16T03:03:18.892Z,2.53
2023-03-16T03:05:46.737Z,2.00
2023-03-16T03:08:14.783Z,1.92
2023-03-16T03:10:42.692Z,1.90
2023-03-16T03:13:10.923Z,2.00
2023-03-16T03:15:39.124Z,2.50
2023-03-16T03:18:12.274Z,1.80
2023-03-16T03:20:40.914Z,1.80
2023-03-16T03:23:08.729Z,2.20
2023-03-16T03:25:36.431Z,1.95
2023-03-16T03:28:06.457Z,2.00
2023-03-16T03:30:34.282Z,1.83
2023-03-16T03:33:04.324Z,2.13
2023-03-16T03:35:33.472Z,2.13
2023-03-16T03:38:01.233Z,2.03
2023-03-16T03:40:29.477Z,2.10
2023-03-16T03:43:00.281Z,2.15
2023-03-16T03:45:28.940Z,2.22
2023-03-16T03:47:56.792Z,1.83
2023-03-16T03:50:25.538Z,2.33
2023-03-16T03:53:24.034Z,2.30
2023-03-16T03:56:20.918Z,1.80
2023-03-16T03:58:48.886Z,2.53
2023-03-16T04:01:24.259Z,1.92
2023-03-16T04:03:55.897Z,2.05
2023-03-16T04:06:23.858Z,2.38
2023-03-16T04:08:54.199Z,2.00
2023-03-16T04:11:26.018Z,2.00
2023-03-16T04:13:54.373Z,2.13
2023-03-16T04:16:22.490Z,2.50
2023-03-16T04:18:54.594Z,2.50
2023-03-16T04:21:24.365Z,2.40
2023-03-16T04:23:56.576Z,2.50
2023-03-16T04:26:37.322Z,2.40
2023-03-16T04:29:05.894Z,2.13
2023-03-16T04:31:35.509Z,2.38
2023-03-16T04:34:03.619Z,2.70
2023-03-16T04:36:33.432Z,2.50
2023-03-16T04:39:04.684Z,2.40
2023-03-16T04:41:32.863Z,2.70
2023-03-16T04:44:07.994Z,2.80
2023-03-16T04:46:36.967Z,2.10
2023-03-16T04:49:11.337Z,2.78
2023-03-16T04:51:42.462Z,2.60
2023-03-16T04:54:17.238Z,2.60
2023-03-16T04:56:45.328Z,2.50
2023-03-16T04:59:35.650Z,2.53
2023-03-16T05:02:20.009Z,2.88
2023-03-16T05:04:48.804Z,2.67
2023-03-16T05:07:17.266Z,2.58
2023-03-16T05:09:51.254Z,3.00
2023-03-16T05:12:19.682Z,3.00
2023-03-16T05:14:50.217Z,2.58
2023-03-16T05:17:26.059Z,2.30
2023-03-16T05:19:54.465Z,2.45
2023-03-16T05:22:22.661Z,3.90
2023-03-16T05:25:15.105Z,2.83
2023-03-16T05:27:46.280Z,2.88
2023-03-16T05:30:20.019Z,2.67
2023-03-16T05:32:48.123Z,2.58
2023-03-16T05:35:16.502Z,2.50
2023-03-16T05:37:44.852Z,3.30
2023-03-16T05:40:18.868Z,3.10
2023-03-16T05:42:57.324Z,2.67
2023-03-16T05:45:25.930Z,3.38
2023-03-16T05:48:06.264Z,2.55
2023-03-16T05:50:37.417Z,2.40
2023-03-16T05:53:05.266Z,3.78
2023-03-16T05:55:34.649Z,3.42
2023-03-16T05:58:05.677Z,2.60
2023-03-16T06:00:36.248Z,3.17
2023-03-16T06:03:16.898Z,2.65
2023-03-16T06:05:44.946Z,3.30
2023-03-16T06:08:16.235Z,2.83
2023-03-16T06:10:50.286Z,3.00
2023-03-16T06:13:21.438Z,2.95
2023-03-16T06:15:50.491Z,2.83
2023-03-16T06:18:18.330Z,2.92
2023-03-16T06:20:47.244Z,3.15
2023-03-16T06:23:16.240Z,3.10
2023-03-16T06:25:44.840Z,2.85
2023-03-16T06:28:13.974Z,3.20
2023-03-16T06:30:41.843Z,2.90
2023-03-16T06:33:12.817Z,3.20
2023-03-16T06:35:41.759Z,3.30
2023-03-16T06:38:18.494Z,3.33
2023-03-16T06:40:57.050Z,2.70
2023-03-16T06:43:26.489Z,3.40
2023-03-16T06:45:55.048Z,3.70
2023-03-16T06:48:24.313Z,3.17
2023-03-16T06:50:52.053Z,3.33
2023-03-16T06:53:23.800Z,2.97
2023-03-16T06:55:52.941Z,2.90
2023-03-16T06:58:21.195Z,3.47
2023-03-16T07:00:51.295Z,3.22
2023-03-16T07:03:19.842Z,3.65
2023-03-16T07:05:54.298Z,3.20
2023-03-16T07:08:22.183Z,3.10
2023-03-16T07:10:51.412Z,3.00
2023-03-16T07:13:19.502Z,2.88
2023-03-16T07:15:53.226Z,2.90
2023-03-16T07:18:22.605Z,3.22
2023-03-16T07:20:50.634Z,2.78
2023-03-16T07:23:18.378Z,2.55
2023-03-16T07:25:47.194Z,2.67
2023-03-16T07:28:17.567Z,2.58
2023-03-16T07:31:02.601Z,2.60
2023-03-16T07:33:35.136Z,1.95
2023-03-16T07:36:06.521Z,2.55
2023-03-16T07:38:40.181Z,2.78
2023-03-16T07:41:08.815Z,2.65
2023-03-16T07:43:36.878Z,2.30
2023-03-16T07:46:06.301Z,2.22
2023-03-16T07:48:35.822Z,2.58
2023-03-16T07:51:05.199Z,2.50
2023-03-16T07:53:33.382Z,2.20
2023-03-16T07:56:21.389Z,2.15
2023-03-16T07:58:52.873Z,2.75
2023-03-16T08:01:20.803Z,2.50
2023-03-16T08:03:51.091Z,2.00
2023-03-16T08:06:18.890Z,2.47
2023-03-16T08:08:47.162Z,2.00
2023-03-16T08:11:24.930Z,1.88
2023-03-16T08:13:58.471Z,2.10
2023-03-16T08:16:34.711Z,2.30
2023-03-16T08:19:05.499Z,2.10
2023-03-16T08:21:35.081Z,2.10
2023-03-16T08:24:06.408Z,2.30
2023-03-16T08:26:34.789Z,2.03
2023-03-16T08:29:04.359Z,2.10
2023-03-16T08:31:35.876Z,2.20
2023-03-16T08:34:11.499Z,1.90
2023-03-16T08:36:44.689Z,2.40
2023-03-16T08:39:14.998Z,2.08
2023-03-16T08:41:48.174Z,2.30
2023-03-16T08:44:39.976Z,2.25
2023-03-16T08:47:07.823Z,2.28
2023-03-16T08:49:38.145Z,2.25
2023-03-16T08:52:12.817Z,2.55
2023-03-16T08:54:47.165Z,2.10
2023-03-16T08:57:21.171Z,2.20
2023-03-16T08:59:48.895Z,2.22
2023-03-16T09:02:16.750Z,2.33
2023-03-16T09:04:47.108Z,2.40
2023-03-16T09:07:14.984Z,2.15
2023-03-16T09:09:42.694Z,2.03
2023-03-16T09:12:10.623Z,2.20
2023-03-16T09:14:38.537Z,2.13
2023-03-16T09:17:07.624Z,2.45
2023-03-16T09:19:53.805Z,2.65
2023-03-16T09:22:24.414Z,2.22
2023-03-16T09:24:52.306Z,2.17
2023-03-16T09:27:20.496Z,2.60
2023-03-16T09:29:49.408Z,2.50
2023-03-16T09:32:17.199Z,2.55
2023-03-16T09:34:45.628Z,2.30
2023-03-16T09:37:13.350Z,2.40
2023-03-16T09:39:42.392Z,2.65
2023-03-16T09:42:18.654Z,2.55
2023-03-16T09:44:57.502Z,2.60
2023-03-16T09:47:29.042Z,2.30
2023-03-16T09:49:59.386Z,2.40
2023-03-16T09:52:34.390Z,2.65
2023-03-16T09:55:10.150Z,2.50
2023-03-16T09:57:41.859Z,2.67
2023-03-16T10:00:17.300Z,2.40
2023-03-16T10:03:06.248Z,2.58
2023-03-16T10:05:34.929Z,2.72
2023-03-16T10:08:13.881Z,2.42
2023-03-16T10:10:59.759Z,2.50
2023-03-16T10:13:35.397Z,2.50
2023-03-16T10:16:08.050Z,2.17
2023-03-16T10:18:42.482Z,1.98
2023-03-16T10:21:14.413Z,2.30
2023-03-16T10:23:43.559Z,2.40
2023-03-16T10:26:15.507Z,2.70
2023-03-16T10:28:45.474Z,2.40
2023-03-16T10:31:14.053Z,2.30
2023-03-16T10:33:41.827Z,2.55
2023-03-16T10:36:17.047Z,2.45
2023-03-16T10:38:48.261Z,2.35
2023-03-16T10:41:28.898Z,2.15
2023-03-16T10:43:58.349Z,2.50
2023-03-16T10:46:28.226Z,2.20
2023-03-16T10:49:00.159Z,2.53
2023-03-16T10:51:30.948Z,2.22
2023-03-16T10:54:11.262Z,2.45
2023-03-16T10:56:40.385Z,2.70
2023-03-16T10:59:17.174Z,2.38
2023-03-16T11:01:50.029Z,2.75
2023-03-16T11:04:20.402Z,2.75
2023-03-16T11:06:53.432Z,2.35
2023-03-16T11:09:24.988Z,2.83
2023-03-16T11:11:54.662Z,3.03
2023-03-16T11:14:27.955Z,2.30
2023-03-16T11:17:03.108Z,2.20
2023-03-16T11:19:32.998Z,2.17
2023-03-16T11:22:04.978Z,2.75
2023-03-16T11:24:43.531Z,2.10
2023-03-16T11:27:23.070Z,1.88
2023-03-16T11:30:00.720Z,2.05
2023-03-16T11:32:34.466Z,2.65
2023-03-16T11:35:04.601Z,2.42
2023-03-16T11:37:49.651Z,2.22
2023-03-16T11:40:33.154Z,2.00
2023-03-16T11:43:13.121Z,2.60
2023-03-16T11:45:48.492Z,1.92
2023-03-16T11:48:30.390Z,2.42
2023-03-16T11:51:05.139Z,2.58
2023-03-16T11:53:50.993Z,2.50
2023-03-16T11:56:34.682Z,2.10
2023-03-16T11:59:22.528Z,2.60
2023-03-16T12:02:02.249Z,2.20
2023-03-16T12:04:45.081Z,1.70
2023-03-16T12:07:31.591Z,2.10
2023-03-16T12:10:25.993Z,2.22
2023-03-16T12:13:30.863Z,2.10
2023-03-16T12:16:05.668Z,2.27
2023-03-16T12:18:43.654Z,2.60
2023-03-16T12:21:15.525Z,2.30
2023-03-16T12:23:57.770Z,2.10
2023-03-16T12:26:29.776Z,2.25
2023-03-16T12:28:59.942Z,2.22
2023-03-16T12:31:40.972Z,2.33
2023-03-16T12:34:15.060Z,2.10
2023-03-16T12:37:03.352Z,2.40
2023-03-16T12:39:48.783Z,2.13
2023-03-16T12:42:55.234Z,2.20
2023-03-16T12:45:33.462Z,2.67
2023-03-16T12:48:13.302Z,2.00
2023-03-16T12:50:50.820Z,1.90
2023-03-16T12:53:43.358Z,2.10
2023-03-16T12:56:13.136Z,1.80
2023-03-16T12:58:47.050Z,2.00
2023-03-16T13:01:16.870Z,2.10
2023-03-16T13:03:48.623Z,2.00
2023-03-16T13:06:23.771Z,2.05
2023-03-16T13:08:57.744Z,1.80
2023-03-16T13:11:25.557Z,2.08
2023-03-16T13:14:07.310Z,2.00
2023-03-16T13:16:37.468Z,2.03
2023-03-16T13:19:26.297Z,2.17
2023-03-16T13:22:06.890Z,1.98
2023-03-16T13:24:40.809Z,2.30
2023-03-16T13:27:22.324Z,2.10
2023-03-16T13:29:58.561Z,1.85
2023-03-16T13:32:30.934Z,2.00
2023-03-16T13:35:02.291Z,2.10
2023-03-16T13:37:31.101Z,1.88
2023-03-16T13:40:04.186Z,2.40
2023-03-16T13:42:33.190Z,1.90
2023-03-16T13:45:14.178Z,2.00
2023-03-16T13:47:44.087Z,2.35
2023-03-16T13:50:14.963Z,1.90
2023-03-16T13:52:44.582Z,2.10
2023-03-16T13:55:18.088Z,2.30
2023-03-16T13:57:47.442Z,2.35
2023-03-16T14:00:20.130Z,2.28
2023-03-16T14:02:51.987Z,2.53
2023-03-16T14:05:24.403Z,2.20
2023-03-16T14:07:53.178Z,2.00
2023-03-16T14:10:22.063Z,2.20
2023-03-16T14:12:54.127Z,2.10
2023-03-16T14:15:23.819Z,1.95
2023-03-16T14:17:51.887Z,2.10
2023-03-16T14:20:23.237Z,2.05
2023-03-16T14:22:53.298Z,1.77
2023-03-16T14:25:24.150Z,1.88
2023-03-16T14:27:59.808Z,1.70
2023-03-16T14:30:30.260Z,1.60
2023-03-16T14:33:00.460Z,1.90
2023-03-16T14:35:32.279Z,1.80
2023-03-16T14:38:29.559Z,2.10
2023-03-16T14:40:58.986Z,1.75
2023-03-16T14:43:32.660Z,1.65
2023-03-16T14:46:01.569Z,1.67
2023-03-16T14:48:30.282Z,1.77
2023-03-16T14:51:02.043Z,1.85
2023-03-16T14:53:30.052Z,1.65
2023-03-16T14:55:58.414Z,2.05
2023-03-16T14:58:26.590Z,1.80
2023-03-16T15:00:55.353Z,1.35
2023-03-16T15:03:28.355Z,1.63
2023-03-16T15:05:56.128Z,1.50
2023-03-16T15:08:28.517Z,1.90
2023-03-16T15:11:00.764Z,1.75
2023-03-16T15:13:53.051Z,1.60
2023-03-16T15:16:22.967Z,1.55
2023-03-16T15:18:51.820Z,1.75
2023-03-16T15:21:23.308Z,1.70
2023-03-16T15:23:52.569Z,1.50
2023-03-16T15:26:27.219Z,1.63
2023-03-16T15:28:56.424Z,1.70
2023-03-16T15:31:24.964Z,1.73
2023-03-16T15:33:52.854Z,1.38
2023-03-16T15:36:24.171Z,1.45
2023-03-16T15:38:55.672Z,1.52
2023-03-16T15:41:24.872Z,1.70
2023-03-16T15:43:52.886Z,1.58
2023-03-16T15:46:20.835Z,1.73
2023-03-16T15:48:48.556Z,1.90
2023-03-16T15:51:22.648Z,1.67
2023-03-16T15:53:54.282Z,1.70
2023-03-16T15:56:29.860Z,1.60
2023-03-16T15:59:00.902Z,1.80
2023-03-16T16:01:31.929Z,2.03
2023-03-16T16:03:59.838Z,1.73
2023-03-16T16:06:28.576Z,1.70
2023-03-16T16:08:57.667Z,1.65
2023-03-16T16:11:28.591Z,2.08
2023-03-16T16:13:57.506Z,1.92
2023-03-16T16:16:28.702Z,1.70
2023-03-16T16:18:57.247Z,1.80
2023-03-16T16:21:27.985Z,1.70
2023-03-16T16:23:57.263Z,1.50
2023-03-16T16:26:47.038Z,1.52
2023-03-16T16:29:18.423Z,1.73
2023-03-16T16:31:46.551Z,1.73
2023-03-16T16:34:17.827Z,1.60
2023-03-16T16:36:45.971Z,1.80
2023-03-16T16:39:15.543Z,1.67
2023-03-16T16:41:44.220Z,1.88
2023-03-16T16:44:17.188Z,1.55
2023-03-16T16:46:45.024Z,1.70
2023-03-16T16:49:16.598Z,1.70
2023-03-16T16:51:44.552Z,1.58
2023-03-16T16:54:18.899Z,1.55
2023-03-16T16:56:47.628Z,1.75
2023-03-16T16:59:18.601Z,2.30
2023-03-16T17:01:47.471Z,1.60
2023-03-16T17:04:17.454Z,1.85
2023-03-16T17:06:46.651Z,1.50
2023-03-16T17:09:16.141Z,1.50
2023-03-16T17:11:45.606Z,1.40
2023-03-16T17:14:17.895Z,1.52
2023-03-16T17:16:47.140Z,1.67
2023-03-16T17:19:21.307Z,1.60
2023-03-16T17:21:49.093Z,1.55
2023-03-16T17:24:18.870Z,1.92
2023-03-16T17:26:49.514Z,1.38
2023-03-16T17:29:22.528Z,1.73
2023-03-16T17:31:51.388Z,2.30
2023-03-16T17:34:21.770Z,2.40
2023-03-16T17:36:49.762Z,2.10
2023-03-16T17:39:21.904Z,2.20
2023-03-16T17:41:52.274Z,2.03
2023-03-16T17:44:21.350Z,1.90
2023-03-16T17:46:49.663Z,1.88
2023-03-16T17:49:19.983Z,1.92
2023-03-16T17:51:47.800Z,2.22
2023-03-16T17:54:15.635Z,2.17
2023-03-16T17:56:45.940Z,2.08
2023-03-16T17:59:18.332Z,2.13
2023-03-16T18:01:47.533Z,2.38
2023-03-16T18:04:17.876Z,1.80
2023-03-16T18:06:47.390Z,2.05
2023-03-16T18:09:15.809Z,2.17
2023-03-16T18:11:47.711Z,2.20
2023-03-16T18:14:25.421Z,2.00
2023-03-16T18:16:54.654Z,2.22
2023-03-16T18:19:25.686Z,2.10
2023-03-16T18:21:54.041Z,2.00
2023-03-16T18:24:25.517Z,2.17
2023-03-16T18:26:55.207Z,2.17
2023-03-16T18:29:23.978Z,2.20
2023-03-16T18:31:55.327Z,3.17
2023-03-16T18:34:25.308Z,2.90
2023-03-16T18:36:54.853Z,2.63
2023-03-16T18:39:23.287Z,2.70
2023-03-16T18:41:51.145Z,3.33
2023-03-16T18:44:22.413Z,2.95
2023-03-16T18:46:51.901Z,3.33
2023-03-16T18:49:23.269Z,3.30
2023-03-16T18:51:53.262Z,2.92
2023-03-16T18:54:23.503Z,2.90
2023-03-16T18:56:51.873Z,3.58
2023-03-16T18:59:21.528Z,3.97
2023-03-16T19:01:49.516Z,3.28
2023-03-16T19:04:21.437Z,3.38
2023-03-16T19:06:50.121Z,3.25
2023-03-16T19:09:21.330Z,3.00
2023-03-16T19:11:50.481Z,3.53
2023-03-16T19:14:20.495Z,3.90
2023-03-16T19:16:49.942Z,3.85
2023-03-16T19:19:21.211Z,3.58
2023-03-16T19:21:50.366Z,3.83
2023-03-16T19:24:23.301Z,3.65
2023-03-16T19:26:51.915Z,3.58
2023-03-16T19:29:21.110Z,3.72
2023-03-16T19:31:50.968Z,3.05
2023-03-16T19:34:19.418Z,3.30
2023-03-16T19:36:47.312Z,3.10
2023-03-16T19:39:16.917Z,4.05
2023-03-16T19:41:46.476Z,3.03
2023-03-16T19:44:17.847Z,3.22
2023-03-16T19:46:46.573Z,3.25
2023-03-16T19:49:19.664Z,3.28
2023-03-16T19:51:47.529Z,3.13
2023-03-16T19:54:22.128Z,3.33
2023-03-16T19:56:50.095Z,3.45
2023-03-16T19:59:18.807Z,3.63
2023-03-16T20:01:47.088Z,3.80
2023-03-16T20:04:18.441Z,4.22
2023-03-16T20:06:48.729Z,4.07
2023-03-16T20:09:17.538Z,2.97
2023-03-16T20:11:46.620Z,3.20
2023-03-16T20:14:21.356Z,3.80
2023-03-16T20:16:49.193Z,3.83
2023-03-16T20:19:20.238Z,4.15
2023-03-16T20:21:49.808Z,3.78
2023-03-16T20:24:20.830Z,4.07
2023-03-16T20:26:51.290Z,3.92
2023-03-16T20:29:24.984Z,3.20
2023-03-16T20:31:52.802Z,3.85
2023-03-16T20:34:24.054Z,3.60
2023-03-16T20:36:51.802Z,3.78
2023-03-16T20:39:19.552Z,3.55
2023-03-16T20:41:47.413Z,4.07
2023-03-16T20:44:18.113Z,3.25
2023-03-16T20:46:46.984Z,3.70
2023-03-16T20:49:32.325Z,3.38
2023-03-16T20:52:00.106Z,3.60
2023-03-16T20:54:28.395Z,3.65
2023-03-16T20:56:56.192Z,3.40
2023-03-16T20:59:26.421Z,3.47
2023-03-16T21:01:55.941Z,3.65
2023-03-16T21:04:27.871Z,4.10
2023-03-16T21:06:56.818Z,2.85
2023-03-16T21:09:24.824Z,2.92
2023-03-16T21:11:52.959Z,3.05
2023-03-16T21:14:24.269Z,3.55
2023-03-16T21:16:54.149Z,3.22
2023-03-16T21:19:23.935Z,2.80
2023-03-16T21:21:53.237Z,3.72
2023-03-16T21:24:21.056Z,3.08
2023-03-16T21:26:49.071Z,3.00
2023-03-16T21:29:21.124Z,3.30
2023-03-16T21:31:49.422Z,2.70
2023-03-16T21:34:24.135Z,3.35
2023-03-16T21:36:53.324Z,3.22
2023-03-16T21:39:25.233Z,3.10
2023-03-16T21:41:53.657Z,3.17
2023-03-16T21:44:21.738Z,3.13
2023-03-16T21:46:49.624Z,3.17
2023-03-16T21:49:18.032Z,3.22
2023-03-16T21:51:45.880Z,2.83
2023-03-16T21:54:16.255Z,3.28
2023-03-16T21:56:44.471Z,3.20
2023-03-16T21:59:13.017Z,3.33
2023-03-16T22:01:58.342Z,2.88
2023-03-16T22:04:28.379Z,3.50
2023-03-16T22:06:56.206Z,3.30
2023-03-16T22:09:29.856Z,3.25
2023-03-16T22:11:57.759Z,2.70
2023-03-16T22:14:25.574Z,3.80
2023-03-16T22:16:53.343Z,3.05
2023-03-16T22:19:21.357Z,3.20
2023-03-16T22:21:49.903Z,2.88
2023-03-16T22:24:20.361Z,2.45
2023-03-16T22:26:50.813Z,2.80
2023-03-16T22:29:23.240Z,3.38
2023-03-16T22:31:53.687Z,3.35
2023-03-16T22:34:28.315Z,2.90
2023-03-16T22:36:56.706Z,3.05
2023-03-16T22:39:25.007Z,3.05
2023-03-16T22:41:54.145Z,2.85
2023-03-16T22:44:23.491Z,3.00
2023-03-16T22:46:51.436Z,3.30
2023-03-16T22:49:22.106Z,3.10
2023-03-16T22:51:52.428Z,2.55
2023-03-16T22:54:23.367Z,3.00
2023-03-16T22:56:51.499Z,2.80
2023-03-16T22:59:25.563Z,2.83
2023-03-16T23:01:53.387Z,3.25
2023-03-16T23:04:24.436Z,3.28
2023-03-16T23:06:54.288Z,3.08
2023-03-16T23:09:22.667Z,3.55
2023-03-16T23:11:53.963Z,3.15
2023-03-16T23:14:25.095Z,2.90
2023-03-16T23:16:53.595Z,3.15
2023-03-16T23:19:25.584Z,3.20
2023-03-16T23:21:55.769Z,3.30
2023-03-16T23:24:23.979Z,2.95
2023-03-16T23:26:52.753Z,3.00
2023-03-16T23:29:21.610Z,3.15
2023-03-16T23:31:51.376Z,3.25
2023-03-16T23:34:22.587Z,3.20
2023-03-16T23:36:50.812Z,3.50
2023-03-16T23:39:19.084Z,3.22
2023-03-16T23:41:48.789Z,2.40
2023-03-16T23:44:18.645Z,2.60
2023-03-16T23:46:46.938Z,3.28
2023-03-16T23:49:21.500Z,3.08
2023-03-16T23:51:49.622Z,3.45
2023-03-16T23:54:20.634Z,2.65
2023-03-16T23:56:48.548Z,3.25
2023-03-16T23:59:16.838Z,3.22
